createdAt,value
2023-03-29T00:00:09.066Z,-2.46
2023-03-29T00:02:39.182Z,-2.51
2023-03-29T00:05:07.487Z,-2.50
2023-03-29T00:07:34.841Z,-2.55
2023-03-29T00:10:04.817Z,-2.67
2023-03-29T00:12:32.289Z,-2.73
2023-03-29T00:14:59.754Z,-2.77
2023-03-29T00:17:27.212Z,-2.77
2023-03-29T00:19:54.404Z,-2.72
2023-03-29T00:22:22.080Z,-2.69
2023-03-29T00:24:52.062Z,-2.78
2023-03-29T00:27:19.386Z,-2.83
2023-03-29T00:29:46.662Z,-2.78
2023-03-29T00:32:14.553Z,-2.74
2023-03-29T00:34:42.822Z,-2.73
2023-03-29T00:37:10.248Z,-2.59
2023-03-29T00:39:38.049Z,-2.40
2023-03-29T00:42:05.504Z,-2.44
2023-03-29T00:45:06.183Z,-2.56
2023-03-29T00:47:58.008Z,-2.63
2023-03-29T00:50:54.177Z,-2.68
2023-03-29T00:53:49.167Z,-2.61
2023-03-29T00:56:25.145Z,-2.74
2023-03-29T00:59:13.898Z,-2.68
2023-03-29T01:02:14.152Z,-2.88
2023-03-29T01:05:01.467Z,-2.96
2023-03-29T01:07:36.446Z,-2.96
2023-03-29T01:10:22.544Z,-2.97
2023-03-29T01:13:06.844Z,-2.94
2023-03-29T01:15:34.809Z,-3.18
2023-03-29T01:18:02.180Z,-3.10
2023-03-29T01:20:51.151Z,-3.27
2023-03-29T01:23:38.183Z,-3.44
2023-03-29T01:26:19.039Z,-3.36
2023-03-29T01:29:07.812Z,-3.32
2023-03-29T01:31:51.227Z,-3.55
2023-03-29T01:34:34.354Z,-3.54
2023-03-29T01:37:18.084Z,-3.58
2023-03-29T01:39:46.762Z,-3.53
2023-03-29T01:42:19.790Z,-3.55
2023-03-29T01:45:48.112Z,-3.72
2023-03-29T01:48:58.897Z,-3.65
2023-03-29T01:51:37.512Z,-3.67
2023-03-29T01:54:15.431Z,-3.66
2023-03-29T01:56:46.836Z,-3.67
2023-03-29T01:59:26.316Z,-3.75
2023-03-29T02:02:00.080Z,-3.71
2023-03-29T02:04:40.471Z,-3.74
2023-03-29T02:07:10.653Z,-3.73
2023-03-29T02:09:40.452Z,-3.95
2023-03-29T02:12:10.856Z,-3.88
2023-03-29T02:14:38.973Z,-4.12
2023-03-29T02:17:19.946Z,-3.94
2023-03-29T02:19:50.665Z,-3.87
2023-03-29T02:22:29.107Z,-4.10
2023-03-29T02:24:59.277Z,-4.01
2023-03-29T02:27:30.163Z,-3.99
2023-03-29T02:29:58.422Z,-4.11
2023-03-29T02:32:41.901Z,-4.05
2023-03-29T02:35:36.351Z,-4.03
2023-03-29T02:38:11.527Z,-4.03
2023-03-29T02:40:41.947Z,-4.05
2023-03-29T02:43:11.712Z,-4.08
2023-03-29T02:45:41.642Z,-4.11
2023-03-29T02:48:14.236Z,-4.13
2023-03-29T02:50:47.163Z,-4.18
2023-03-29T02:53:20.685Z,-4.27
2023-03-29T02:55:50.177Z,-4.39
2023-03-29T02:58:17.437Z,-4.41
2023-03-29T03:00:48.746Z,-4.38
2023-03-29T03:03:16.224Z,-4.42
2023-03-29T03:05:46.094Z,-4.40
2023-03-29T03:08:14.122Z,-4.33
2023-03-29T03:10:41.460Z,-4.20
2023-03-29T03:13:09.070Z,-4.39
2023-03-29T03:15:37.375Z,-4.42
2023-03-29T03:18:05.033Z,-4.46
2023-03-29T03:20:33.496Z,-4.42
2023-03-29T03:23:03.396Z,-4.51
2023-03-29T03:25:31.727Z,-4.50
2023-03-29T03:27:59.117Z,-4.43
2023-03-29T03:30:26.322Z,-4.39
2023-03-29T03:33:12.204Z,-4.51
2023-03-29T03:36:06.524Z,-4.43
2023-03-29T03:38:37.913Z,-4.44
2023-03-29T03:41:09.816Z,-4.43
2023-03-29T03:43:37.169Z,-4.51
2023-03-29T03:46:04.854Z,-4.45
2023-03-29T03:48:32.490Z,-4.32
2023-03-29T03:51:07.161Z,-4.29
2023-03-29T03:53:35.921Z,-4.24
2023-03-29T03:56:16.381Z,-4.28
2023-03-29T03:59:19.272Z,-4.47
2023-03-29T04:02:06.912Z,-4.44
2023-03-29T04:04:36.712Z,-4.34
2023-03-29T04:07:13.154Z,-4.38
2023-03-29T04:09:59.503Z,-4.50
2023-03-29T04:12:43.154Z,-4.46
2023-03-29T04:15:12.194Z,-4.44
2023-03-29T04:17:45.013Z,-4.52
2023-03-29T04:20:24.357Z,-4.53
2023-03-29T04:22:52.760Z,-4.45
2023-03-29T04:25:22.353Z,-4.50
2023-03-29T04:27:52.377Z,-4.27
2023-03-29T04:30:38.009Z,-4.20
2023-03-29T04:33:12.794Z,-4.26
2023-03-29T04:35:42.637Z,-4.22
2023-03-29T04:38:14.108Z,-4.16
2023-03-29T04:40:44.257Z,-4.06
2023-03-29T04:43:23.989Z,-4.05
2023-03-29T04:46:00.943Z,-3.78
2023-03-29T04:48:49.823Z,-3.76
2023-03-29T04:51:18.523Z,-3.80
2023-03-29T04:53:46.398Z,-3.52
2023-03-29T04:56:13.707Z,-3.33
2023-03-29T04:59:16.175Z,-3.27
2023-03-29T05:01:43.580Z,-3.10
2023-03-29T05:04:12.857Z,-2.78
2023-03-29T05:06:49.076Z,-2.49
2023-03-29T05:09:17.136Z,-2.30
2023-03-29T05:11:53.725Z,-2.16
2023-03-29T05:14:23.747Z,-1.90
2023-03-29T05:16:50.942Z,-1.44
2023-03-29T05:19:21.794Z,-0.86
2023-03-29T05:21:51.030Z,-0.58
2023-03-29T05:24:22.495Z,-0.21
2023-03-29T05:26:51.902Z,-0.18
2023-03-29T05:29:19.786Z,0.13
2023-03-29T05:31:53.445Z,0.34
2023-03-29T05:34:20.884Z,0.45
2023-03-29T05:36:52.710Z,0.94
2023-03-29T05:39:21.172Z,1.21
2023-03-29T05:41:48.842Z,1.40
2023-03-29T05:44:27.628Z,1.75
2023-03-29T05:47:02.120Z,2.35
2023-03-29T05:49:29.370Z,2.50
2023-03-29T05:52:04.691Z,2.91
2023-03-29T05:54:33.456Z,3.32
2023-03-29T05:57:01.689Z,3.84
2023-03-29T05:59:29.780Z,4.17
2023-03-29T06:01:57.321Z,4.73
2023-03-29T06:04:25.448Z,6.02
2023-03-29T06:07:19.494Z,6.14
2023-03-29T06:10:09.698Z,6.83
2023-03-29T06:12:39.099Z,7.59
2023-03-29T06:15:07.331Z,7.10
2023-03-29T06:17:40.126Z,7.16
2023-03-29T06:20:11.425Z,6.97
2023-03-29T06:22:42.808Z,6.60
2023-03-29T06:25:12.384Z,7.04
2023-03-29T06:27:41.082Z,7.44
2023-03-29T06:30:09.568Z,7.59
2023-03-29T06:32:37.887Z,8.28
2023-03-29T06:35:17.303Z,9.18
2023-03-29T06:37:50.866Z,10.05
2023-03-29T06:40:42.152Z,10.46
2023-03-29T06:43:10.889Z,10.87
2023-03-29T06:45:47.972Z,11.62
2023-03-29T06:48:30.734Z,11.19
2023-03-29T06:50:58.032Z,11.29
2023-03-29T06:53:29.079Z,10.72
2023-03-29T06:56:05.323Z,10.81
2023-03-29T06:58:41.014Z,11.75
2023-03-29T07:01:22.936Z,12.80
2023-03-29T07:03:56.692Z,12.64
2023-03-29T07:06:31.492Z,12.42
2023-03-29T07:09:01.805Z,13.33
2023-03-29T07:11:50.418Z,13.34
2023-03-29T07:14:28.692Z,13.86
2023-03-29T07:16:59.366Z,13.39
2023-03-29T07:19:30.493Z,12.88
2023-03-29T07:22:10.026Z,12.66
2023-03-29T07:24:46.935Z,13.43
2023-03-29T07:27:14.762Z,13.85
2023-03-29T07:29:42.200Z,14.23
2023-03-29T07:32:09.675Z,14.05
2023-03-29T07:34:43.318Z,13.51
2023-03-29T07:37:18.503Z,14.62
2023-03-29T07:39:47.367Z,15.40
2023-03-29T07:42:33.558Z,15.85
2023-03-29T07:45:01.569Z,16.63
2023-03-29T07:47:35.284Z,16.43
2023-03-29T07:50:04.516Z,16.83
2023-03-29T07:52:32.862Z,17.52
2023-03-29T07:55:00.932Z,17.24
2023-03-29T07:57:41.687Z,17.65
2023-03-29T08:00:17.075Z,18.38
2023-03-29T08:02:55.192Z,17.97
2023-03-29T08:05:37.846Z,19.13
2023-03-29T08:08:11.046Z,18.97
2023-03-29T08:10:48.993Z,18.96
2023-03-29T08:13:26.686Z,19.80
2023-03-29T08:16:12.382Z,19.01
2023-03-29T08:18:46.226Z,19.16
2023-03-29T08:21:14.978Z,19.72
2023-03-29T08:23:47.074Z,20.10
2023-03-29T08:26:24.826Z,20.35
2023-03-29T08:28:52.394Z,21.29
2023-03-29T08:31:21.464Z,22.02
2023-03-29T08:33:48.924Z,22.52
2023-03-29T08:36:36.622Z,21.29
2023-03-29T08:39:11.176Z,20.08
2023-03-29T08:41:58.840Z,19.76
2023-03-29T08:45:14.848Z,19.81
2023-03-29T08:48:01.730Z,21.86
2023-03-29T08:50:48.091Z,20.18
2023-03-29T08:53:31.964Z,21.10
2023-03-29T08:56:20.803Z,20.21
2023-03-29T08:59:33.239Z,19.10
2023-03-29T09:02:10.925Z,19.56
2023-03-29T09:04:42.542Z,18.79
2023-03-29T09:07:28.568Z,18.63
2023-03-29T09:09:57.153Z,18.17
2023-03-29T09:12:50.811Z,17.20
2023-03-29T09:15:29.063Z,17.26
2023-03-29T09:18:23.070Z,16.17
2023-03-29T09:21:06.962Z,16.29
2023-03-29T09:24:12.294Z,17.47
2023-03-29T09:27:00.673Z,16.49
2023-03-29T09:29:53.139Z,17.58
2023-03-29T09:32:33.208Z,20.10
2023-03-29T09:35:22.275Z,20.13
2023-03-29T09:37:54.312Z,18.86
2023-03-29T09:40:38.017Z,20.43
2023-03-29T09:45:43.824Z,22.58
2023-03-29T09:48:18.465Z,23.50
2023-03-29T09:50:52.428Z,22.76
2023-03-29T09:53:21.915Z,21.79
2023-03-29T09:56:00.167Z,22.10
2023-03-29T09:58:39.076Z,20.05
2023-03-29T10:01:10.990Z,19.62
2023-03-29T10:03:41.210Z,18.19
2023-03-29T10:06:14.695Z,17.99
2023-03-29T10:08:57.728Z,17.72
2023-03-29T10:11:37.068Z,17.16
2023-03-29T10:14:16.522Z,15.90
2023-03-29T10:16:46.373Z,18.58
2023-03-29T10:19:30.386Z,18.47
2023-03-29T10:22:18.214Z,19.38
2023-03-29T10:24:54.329Z,20.33
2023-03-29T10:27:29.166Z,19.50
2023-03-29T10:30:08.115Z,19.99
2023-03-29T10:32:37.675Z,18.51
2023-03-29T10:35:38.273Z,17.97
2023-03-29T10:38:12.153Z,17.76
2023-03-29T10:40:51.844Z,18.95
2023-03-29T10:43:38.594Z,19.81
2023-03-29T10:46:13.256Z,19.22
2023-03-29T10:48:46.609Z,18.98
2023-03-29T10:51:17.117Z,18.39
2023-03-29T10:53:44.401Z,19.76
2023-03-29T10:56:20.164Z,20.23
2023-03-29T10:59:23.056Z,20.43
2023-03-29T11:02:14.746Z,19.87
2023-03-29T11:05:32.531Z,19.80
2023-03-29T11:08:11.658Z,18.85
2023-03-29T11:11:06.697Z,20.45
2023-03-29T11:13:46.571Z,20.69
2023-03-29T11:16:39.611Z,20.49
2023-03-29T11:19:20.706Z,18.67
2023-03-29T11:22:25.410Z,17.95
2023-03-29T11:25:24.706Z,15.61
2023-03-29T11:27:57.782Z,16.56
2023-03-29T11:31:13.486Z,17.53
2023-03-29T11:34:22.270Z,18.90
2023-03-29T11:37:12.408Z,17.29
2023-03-29T11:40:12.197Z,17.06
2023-03-29T11:42:47.319Z,17.03
2023-03-29T11:45:47.028Z,16.32
2023-03-29T11:48:32.583Z,15.25
2023-03-29T11:51:13.250Z,15.88
2023-03-29T11:54:05.381Z,15.64
2023-03-29T11:56:47.482Z,15.34
2023-03-29T11:59:25.474Z,15.06
2023-03-29T12:02:02.176Z,14.59
2023-03-29T12:04:42.789Z,13.36
2023-03-29T12:07:39.140Z,12.97
2023-03-29T12:10:17.910Z,13.96
2023-03-29T12:12:55.403Z,13.84
2023-03-29T12:15:29.441Z,13.97
2023-03-29T12:18:42.178Z,13.97
2023-03-29T12:21:20.149Z,13.27
2023-03-29T12:23:49.786Z,12.36
2023-03-29T12:26:50.766Z,13.14
2023-03-29T12:29:39.438Z,13.12
2023-03-29T12:32:42.452Z,13.20
2023-03-29T12:35:59.217Z,12.34
2023-03-29T12:38:31.081Z,11.82
2023-03-29T12:41:22.013Z,12.80
2023-03-29T12:44:10.234Z,13.57
2023-03-29T12:47:02.334Z,14.54
2023-03-29T12:49:38.486Z,13.50
2023-03-29T12:52:35.233Z,12.68
2023-03-29T12:55:20.912Z,12.67
2023-03-29T12:58:10.845Z,13.35
2023-03-29T13:00:42.263Z,12.54
2023-03-29T13:03:30.046Z,12.02
2023-03-29T13:06:08.666Z,12.00
2023-03-29T13:08:44.896Z,11.82
2023-03-29T13:11:27.414Z,12.21
2023-03-29T13:13:55.491Z,11.04
2023-03-29T13:16:40.637Z,10.76
2023-03-29T13:19:23.509Z,11.18
2023-03-29T13:22:12.712Z,10.85
2023-03-29T13:25:20.538Z,11.19
2023-03-29T13:28:25.497Z,11.16
2023-03-29T13:31:39.941Z,11.74
2023-03-29T13:34:15.920Z,11.16
2023-03-29T13:37:10.760Z,11.74
2023-03-29T13:39:51.509Z,11.15
2023-03-29T13:42:37.186Z,11.21
2023-03-29T13:45:25.296Z,10.87
2023-03-29T13:48:25.744Z,11.09
2023-03-29T13:51:33.983Z,11.15
2023-03-29T13:54:15.135Z,11.28
2023-03-29T13:57:10.018Z,10.85
2023-03-29T14:00:23.597Z,10.87
2023-03-29T14:03:05.472Z,10.84
2023-03-29T14:05:40.015Z,10.62
2023-03-29T14:08:33.314Z,10.60
2023-03-29T14:11:05.257Z,10.93
2023-03-29T14:13:32.675Z,10.60
2023-03-29T14:16:10.390Z,10.58
2023-03-29T14:18:41.876Z,10.58
2023-03-29T14:21:12.752Z,10.52
2023-03-29T14:23:46.702Z,10.69
2023-03-29T14:26:24.385Z,10.60
2023-03-29T14:28:56.635Z,10.76
2023-03-29T14:31:37.248Z,10.39
2023-03-29T14:34:06.754Z,10.22
2023-03-29T14:36:34.692Z,10.47
2023-03-29T14:39:08.366Z,10.62
2023-03-29T14:41:38.416Z,10.64
2023-03-29T14:44:07.821Z,10.44
2023-03-29T14:46:36.661Z,10.44
2023-03-29T14:49:06.170Z,10.44
2023-03-29T14:51:36.109Z,10.52
2023-03-29T14:54:05.676Z,10.04
2023-03-29T14:56:34.120Z,9.79
2023-03-29T14:59:04.979Z,9.76
2023-03-29T15:01:32.451Z,9.66
2023-03-29T15:04:08.088Z,9.77
2023-03-29T15:06:50.886Z,9.84
2023-03-29T15:09:26.685Z,9.71
2023-03-29T15:11:56.906Z,9.81
2023-03-29T15:14:30.100Z,9.93
2023-03-29T15:17:04.680Z,9.82
2023-03-29T15:19:33.019Z,9.66
2023-03-29T15:22:10.232Z,9.60
2023-03-29T15:24:47.641Z,9.59
2023-03-29T15:27:19.719Z,9.51
2023-03-29T15:29:48.472Z,9.52
2023-03-29T15:32:34.139Z,9.65
2023-03-29T15:35:10.798Z,9.64
2023-03-29T15:37:38.057Z,9.53
2023-03-29T15:40:09.844Z,9.52
2023-03-29T15:42:37.470Z,9.30
2023-03-29T15:45:06.480Z,9.04
2023-03-29T15:47:34.106Z,9.13
2023-03-29T15:50:01.430Z,9.22
2023-03-29T15:52:28.719Z,9.16
2023-03-29T15:54:56.214Z,9.06
2023-03-29T15:57:23.612Z,9.07
2023-03-29T15:59:50.936Z,8.85
2023-03-29T16:02:22.067Z,8.63
2023-03-29T16:04:50.984Z,8.23
2023-03-29T16:07:20.865Z,8.22
2023-03-29T16:09:48.136Z,8.30
2023-03-29T16:12:16.436Z,8.28
2023-03-29T16:14:43.784Z,8.34
2023-03-29T16:17:11.538Z,8.18
2023-03-29T16:19:38.864Z,8.11
2023-03-29T16:22:07.429Z,8.32
2023-03-29T16:24:36.355Z,8.22
2023-03-29T16:27:04.295Z,7.99
2023-03-29T16:29:31.996Z,7.76
2023-03-29T16:31:59.402Z,7.96
2023-03-29T16:34:26.848Z,8.16
2023-03-29T16:36:54.179Z,8.07
2023-03-29T16:39:21.579Z,8.18
2023-03-29T16:41:50.321Z,7.97
2023-03-29T16:44:23.853Z,7.94
2023-03-29T16:46:57.479Z,8.06
2023-03-29T16:49:24.993Z,8.20
2023-03-29T16:51:52.187Z,7.99
2023-03-29T16:54:19.398Z,7.99
2023-03-29T16:56:47.243Z,8.12
2023-03-29T16:59:15.417Z,8.20
2023-03-29T17:01:42.996Z,8.17
2023-03-29T17:04:10.493Z,8.18
2023-03-29T17:06:38.069Z,8.17
2023-03-29T17:09:06.228Z,8.24
2023-03-29T17:11:34.649Z,8.14
2023-03-29T17:14:02.061Z,8.12
2023-03-29T17:16:29.447Z,8.15
2023-03-29T17:19:00.498Z,8.18
2023-03-29T17:21:29.342Z,8.16
2023-03-29T17:23:56.680Z,7.98
2023-03-29T17:26:24.165Z,7.94
2023-03-29T17:28:51.601Z,7.81
2023-03-29T17:31:19.488Z,7.47
2023-03-29T17:33:47.685Z,7.27
2023-03-29T17:36:15.210Z,7.22
2023-03-29T17:38:43.164Z,7.18
2023-03-29T17:41:11.144Z,7.13
2023-03-29T17:43:38.424Z,7.08
2023-03-29T17:46:06.225Z,6.96
2023-03-29T17:48:34.010Z,6.84
2023-03-29T17:51:01.281Z,6.78
2023-03-29T17:53:28.586Z,6.67
2023-03-29T17:55:55.800Z,6.52
2023-03-29T17:58:23.044Z,6.29
2023-03-29T18:00:50.524Z,6.21
2023-03-29T18:03:17.892Z,6.11
2023-03-29T18:05:45.598Z,6.08
2023-03-29T18:08:13.738Z,6.01
2023-03-29T18:10:41.229Z,5.75
2023-03-29T18:13:11.399Z,5.81
2023-03-29T18:15:38.695Z,5.68
2023-03-29T18:18:06.367Z,5.66
2023-03-29T18:20:33.657Z,5.62
2023-03-29T18:23:00.936Z,5.46
2023-03-29T18:25:29.556Z,5.44
2023-03-29T18:27:56.816Z,5.37
2023-03-29T18:30:24.065Z,5.37
2023-03-29T18:32:51.340Z,5.52
2023-03-29T18:35:18.728Z,5.66
2023-03-29T18:37:46.583Z,5.81
2023-03-29T18:40:15.727Z,5.84
2023-03-29T18:42:43.092Z,5.72
2023-03-29T18:45:11.270Z,5.81
2023-03-29T18:47:38.596Z,5.77
2023-03-29T18:50:06.760Z,5.90
2023-03-29T18:52:34.046Z,5.91
2023-03-29T18:55:01.463Z,5.91
2023-03-29T18:57:28.826Z,5.80
2023-03-29T18:59:56.624Z,5.90
2023-03-29T19:02:24.021Z,5.96
2023-03-29T19:04:51.312Z,5.97
2023-03-29T19:07:19.027Z,5.88
2023-03-29T19:09:46.197Z,6.24
2023-03-29T19:12:13.531Z,6.15
2023-03-29T19:14:40.947Z,6.29
2023-03-29T19:17:08.170Z,6.28
2023-03-29T19:19:35.458Z,6.23
2023-03-29T19:22:03.233Z,6.29
2023-03-29T19:24:30.654Z,6.33
2023-03-29T19:26:58.349Z,6.38
2023-03-29T19:29:26.280Z,5.97
2023-03-29T19:31:54.725Z,5.88
2023-03-29T19:34:23.903Z,5.77
2023-03-29T19:36:53.526Z,5.79
2023-03-29T19:39:21.635Z,5.66
2023-03-29T19:41:48.947Z,5.65
2023-03-29T19:44:16.218Z,5.58
2023-03-29T19:46:43.529Z,5.35
2023-03-29T19:49:13.636Z,5.19
2023-03-29T19:51:42.217Z,5.24
2023-03-29T19:54:12.815Z,5.02
2023-03-29T19:56:40.898Z,5.08
2023-03-29T19:59:11.074Z,5.17
2023-03-29T20:01:40.680Z,5.31
2023-03-29T20:04:08.239Z,5.42
2023-03-29T20:06:35.742Z,5.65
2023-03-29T20:09:05.235Z,5.67
2023-03-29T20:11:32.543Z,5.69
2023-03-29T20:14:00.031Z,5.79
2023-03-29T20:16:27.595Z,5.79
2023-03-29T20:18:56.303Z,5.83
2023-03-29T20:21:23.543Z,5.69
2023-03-29T20:23:50.886Z,5.77
2023-03-29T20:26:18.371Z,5.86
2023-03-29T20:28:45.858Z,5.89
2023-03-29T20:31:13.310Z,5.76
2023-03-29T20:33:41.537Z,5.84
2023-03-29T20:36:09.135Z,5.75
2023-03-29T20:38:36.882Z,5.87
2023-03-29T20:41:05.740Z,5.87
2023-03-29T20:43:37.695Z,5.94
2023-03-29T20:46:14.563Z,5.90
2023-03-29T20:48:54.599Z,5.92
2023-03-29T20:51:30.338Z,5.74
2023-03-29T20:54:06.116Z,5.76
2023-03-29T20:56:38.965Z,5.80
2023-03-29T20:59:10.861Z,5.87
2023-03-29T21:01:41.066Z,6.00
2023-03-29T21:04:09.301Z,5.97
2023-03-29T21:06:39.521Z,6.00
2023-03-29T21:09:07.387Z,6.10
2023-03-29T21:11:34.582Z,5.90
2023-03-29T21:14:02.687Z,5.95
2023-03-29T21:16:30.039Z,6.07
2023-03-29T21:18:57.329Z,5.96
2023-03-29T21:21:24.712Z,5.88
2023-03-29T21:23:51.973Z,5.89
2023-03-29T21:26:19.198Z,6.05
2023-03-29T21:28:48.666Z,6.03
2023-03-29T21:31:16.085Z,5.95
2023-03-29T21:33:43.355Z,5.91
2023-03-29T21:36:10.853Z,5.97
2023-03-29T21:38:38.085Z,5.93
2023-03-29T21:41:06.891Z,5.87
2023-03-29T21:43:34.112Z,5.87
2023-03-29T21:46:01.520Z,5.95
2023-03-29T21:48:29.102Z,5.99
2023-03-29T21:50:56.352Z,6.05
2023-03-29T21:53:24.646Z,6.07
2023-03-29T21:55:52.733Z,6.01
2023-03-29T21:58:20.565Z,6.00
2023-03-29T22:00:48.258Z,6.04
2023-03-29T22:03:16.743Z,5.98
2023-03-29T22:05:54.597Z,6.02
2023-03-29T22:08:26.365Z,5.92
2023-03-29T22:10:56.709Z,5.94
2023-03-29T22:13:27.057Z,6.00
2023-03-29T22:16:03.905Z,6.10
2023-03-29T22:18:43.053Z,6.13
2023-03-29T22:21:14.568Z,6.15
2023-03-29T22:23:43.778Z,6.16
2023-03-29T22:26:13.560Z,6.31
2023-03-29T22:28:41.800Z,6.19
2023-03-29T22:31:15.579Z,6.26
2023-03-29T22:33:43.347Z,6.32
2023-03-29T22:36:31.885Z,6.28
2023-03-29T22:38:59.392Z,6.27
2023-03-29T22:41:28.336Z,6.36
2023-03-29T22:43:58.237Z,6.29
2023-03-29T22:46:26.445Z,6.29
2023-03-29T22:48:54.006Z,6.30
2023-03-29T22:51:21.705Z,6.23
2023-03-29T22:53:49.133Z,6.12
2023-03-29T22:56:17.316Z,6.21
2023-03-29T22:58:44.694Z,6.12
2023-03-29T23:01:12.752Z,6.02
2023-03-29T23:03:39.982Z,6.03
2023-03-29T23:06:07.764Z,5.96
2023-03-29T23:08:35.367Z,5.91
2023-03-29T23:11:04.116Z,5.95
2023-03-29T23:13:33.557Z,5.92
2023-03-29T23:16:03.661Z,5.92
2023-03-29T23:18:34.812Z,5.96
2023-03-29T23:21:05.599Z,5.93
2023-03-29T23:23:33.876Z,6.04
2023-03-29T23:26:02.533Z,6.10
2023-03-29T23:28:34.685Z,6.10
2023-03-29T23:31:11.626Z,5.88
2023-03-29T23:33:43.008Z,5.90
2023-03-29T23:36:16.488Z,5.91
2023-03-29T23:38:45.873Z,5.72
2023-03-29T23:41:17.815Z,5.59
2023-03-29T23:43:47.100Z,5.53
2023-03-29T23:46:17.623Z,5.50
2023-03-29T23:48:47.291Z,5.51
2023-03-29T23:51:15.388Z,5.37
2023-03-29T23:53:42.633Z,5.18
2023-03-29T23:56:10.127Z,4.95
2023-03-29T23:58:38.314Z,4.89
